Acton, Texas
Current Conditions -  °F | °C
As of 12:55 PM on Friday 24 Oct 2014 (Local Time) from KGDJ Reporting Station
Clear Clear  
Wind Chill: 82°   Ceiling: Unl
Heat Index: 83°   Visibility: 10mi
Dew Point: 62°   Wind: 3mph
Humidity: 49%   Direction: 190°S
Pressure: 30.15"   Gusts: NA
Location:  32.4693°N, 97.7085°W
Report Text: KGDJ 241755Z AUTO 19003KT 10SM CLR 28/17 A3015 RMK AO2 T02800165 10280 20162
Loading
Personal Weather Stations






























Interactive Weather Map
Tropical Storm Tracking
New forecast layout! Learn more

10-Day Weather Forecast

Advertisements
Track Severe Weather on mobile